createdAt,value
2023-02-22T00:00:28.225Z,94.93
2023-02-22T00:03:01.100Z,93.00
2023-02-22T00:05:34.914Z,92.13
2023-02-22T00:08:12.503Z,91.67
2023-02-22T00:10:45.255Z,91.74
2023-02-22T00:13:18.820Z,91.37
2023-02-22T00:15:51.851Z,90.86
2023-02-22T00:18:25.002Z,90.66
2023-02-22T00:21:00.172Z,90.65
2023-02-22T00:23:35.398Z,90.68
2023-02-22T00:26:10.810Z,90.90
2023-02-22T00:28:44.434Z,90.93
2023-02-22T00:31:18.052Z,90.96
2023-02-22T00:33:51.072Z,91.05
2023-02-22T00:36:24.494Z,91.20
2023-02-22T00:38:57.996Z,91.46
2023-02-22T00:41:31.365Z,91.71
2023-02-22T00:44:04.407Z,92.15
2023-02-22T00:46:37.205Z,92.36
2023-02-22T00:49:10.235Z,92.37
2023-02-22T00:51:44.084Z,92.26
2023-02-22T00:54:20.328Z,92.61
2023-02-22T00:56:53.637Z,92.67
2023-02-22T00:59:27.518Z,92.87
2023-02-22T01:02:00.476Z,92.96
2023-02-22T01:04:35.876Z,93.21
2023-02-22T01:07:11.031Z,93.95
2023-02-22T01:09:45.477Z,94.61
2023-02-22T01:12:23.261Z,94.92
2023-02-22T01:14:58.520Z,95.11
2023-02-22T01:17:31.603Z,95.11
2023-02-22T01:20:10.377Z,95.28
2023-02-22T01:22:45.854Z,95.75
2023-02-22T01:25:21.445Z,96.45
2023-02-22T01:27:54.688Z,96.60
2023-02-22T01:30:29.693Z,96.73
2023-02-22T01:33:04.579Z,96.76
2023-02-22T01:35:41.966Z,97.04
2023-02-22T01:38:16.095Z,97.55
2023-02-22T01:40:50.999Z,98.50
2023-02-22T01:43:27.987Z,99.19
2023-02-22T01:46:02.449Z,99.39
2023-02-22T01:48:38.770Z,99.22
2023-02-22T01:51:14.410Z,99.20
2023-02-22T01:54:05.632Z,99.12
2023-02-22T01:56:39.944Z,99.27
2023-02-22T01:59:13.347Z,99.08
2023-02-22T02:01:48.706Z,98.68
2023-02-22T02:04:25.910Z,98.16
2023-02-22T02:07:06.170Z,98.04
2023-02-22T02:09:43.835Z,98.09
2023-02-22T02:12:18.602Z,98.06
2023-02-22T02:15:13.348Z,97.81
2023-02-22T02:17:49.676Z,97.78
2023-02-22T02:20:28.682Z,97.65
2023-02-22T02:23:06.535Z,98.11
2023-02-22T02:25:54.370Z,98.65
2023-02-22T02:28:57.868Z,98.68
2023-02-22T02:32:03.313Z,98.70
2023-02-22T02:34:37.012Z,99.34
2023-02-22T02:37:14.223Z,99.97
2023-02-22T02:39:50.643Z,100.00
2023-02-22T02:42:24.660Z,100.00
2023-02-22T02:45:02.853Z,100.00
2023-02-22T02:47:37.247Z,100.00
2023-02-22T02:50:13.606Z,100.00
2023-02-22T02:52:46.659Z,100.00
2023-02-22T02:55:21.189Z,100.00
2023-02-22T02:57:54.093Z,100.00
2023-02-22T03:00:28.700Z,100.00
2023-02-22T03:03:11.752Z,100.00
2023-02-22T03:05:54.961Z,100.00
2023-02-22T03:08:30.411Z,100.00
2023-02-22T03:11:15.442Z,100.00
2023-02-22T03:13:56.174Z,100.00
2023-02-22T03:16:34.440Z,100.00
2023-02-22T03:19:09.916Z,100.00
2023-02-22T03:21:46.054Z,100.00
2023-02-22T03:24:22.290Z,100.00
2023-02-22T03:26:58.473Z,100.00
2023-02-22T03:29:35.752Z,100.00
2023-02-22T03:32:12.081Z,100.00
2023-02-22T03:34:47.783Z,100.00
2023-02-22T03:37:23.006Z,100.00
2023-02-22T03:39:57.633Z,100.00
2023-02-22T03:42:33.256Z,100.00
2023-02-22T03:45:10.273Z,100.00
2023-02-22T03:47:50.608Z,100.00
2023-02-22T03:50:25.504Z,100.00
2023-02-22T03:52:59.254Z,100.00
2023-02-22T03:55:34.002Z,100.00
2023-02-22T03:58:13.369Z,100.00
2023-02-22T04:00:47.255Z,100.00
2023-02-22T04:03:20.583Z,100.00
2023-02-22T04:05:53.887Z,100.00
2023-02-22T04:08:27.550Z,100.00
2023-02-22T04:11:01.665Z,100.00
2023-02-22T04:13:35.664Z,100.00
2023-02-22T04:16:09.873Z,100.00
2023-02-22T04:18:44.006Z,100.00
2023-02-22T04:21:25.081Z,100.00
2023-02-22T04:23:58.129Z,100.00
2023-02-22T04:26:32.021Z,100.00
2023-02-22T04:29:07.156Z,100.00
2023-02-22T04:31:44.639Z,100.00
2023-02-22T04:34:17.977Z,100.00
2023-02-22T04:36:51.197Z,100.00
2023-02-22T04:39:24.603Z,100.00
2023-02-22T04:41:57.945Z,100.00
2023-02-22T04:44:30.747Z,100.00
2023-02-22T04:47:03.796Z,100.00
2023-02-22T04:49:38.999Z,100.00
2023-02-22T04:52:12.656Z,100.00
2023-02-22T04:54:45.652Z,100.00
2023-02-22T04:57:18.686Z,100.00
2023-02-22T04:59:52.907Z,100.00
2023-02-22T05:02:26.463Z,100.00
2023-02-22T05:05:04.668Z,100.00
2023-02-22T05:07:38.037Z,100.00
2023-02-22T05:10:11.850Z,100.00
2023-02-22T05:12:45.223Z,100.00
2023-02-22T05:15:20.700Z,100.00
2023-02-22T05:17:54.474Z,100.00
2023-02-22T05:20:29.226Z,100.00
2023-02-22T05:23:03.366Z,100.00
2023-02-22T05:25:39.908Z,100.00
2023-02-22T05:28:14.584Z,100.00
2023-02-22T05:30:47.933Z,100.00
2023-02-22T05:33:21.269Z,100.00
2023-02-22T05:35:56.315Z,100.00
2023-02-22T05:38:29.492Z,100.00
2023-02-22T05:41:02.283Z,100.00
2023-02-22T05:43:35.397Z,100.00
2023-02-22T05:46:08.483Z,100.00
2023-02-22T05:48:41.821Z,100.00
2023-02-22T05:51:15.076Z,100.00
2023-02-22T05:53:52.410Z,100.00
2023-02-22T05:56:30.857Z,100.00
2023-02-22T05:59:04.025Z,100.00
2023-02-22T06:01:36.823Z,100.00
2023-02-22T06:04:09.678Z,100.00
2023-02-22T06:06:42.313Z,100.00
2023-02-22T06:09:15.159Z,100.00
2023-02-22T06:11:47.877Z,100.00
2023-02-22T06:14:21.518Z,100.00
2023-02-22T06:16:57.051Z,100.00
2023-02-22T06:19:29.868Z,100.00
2023-02-22T06:22:03.418Z,100.00
2023-02-22T06:24:36.305Z,100.00
2023-02-22T06:27:09.653Z,100.00
2023-02-22T06:29:42.868Z,100.00
2023-02-22T06:32:16.058Z,100.00
2023-02-22T06:34:48.747Z,100.00
2023-02-22T06:37:21.619Z,100.00
2023-02-22T06:39:54.572Z,100.00
2023-02-22T06:42:27.245Z,100.00
2023-02-22T06:45:00.150Z,99.96
2023-02-22T06:47:34.603Z,99.23
2023-02-22T06:50:08.495Z,98.67
2023-02-22T06:52:45.840Z,98.00
2023-02-22T06:55:22.247Z,96.62
2023-02-22T06:57:55.159Z,94.81
2023-02-22T07:00:29.176Z,93.64
2023-02-22T07:03:02.508Z,92.98
2023-02-22T07:05:35.379Z,74.02
2023-02-22T07:08:13.650Z,92.91
2023-02-22T07:10:46.924Z,92.83
2023-02-22T07:13:20.276Z,92.46
2023-02-22T07:15:56.634Z,91.64
2023-02-22T07:18:30.925Z,91.70
2023-02-22T07:21:10.968Z,90.56
2023-02-22T07:23:44.429Z,89.79
2023-02-22T07:26:20.146Z,88.24
2023-02-22T07:28:52.989Z,88.29
2023-02-22T07:31:27.302Z,87.38
2023-02-22T07:34:04.847Z,87.67
2023-02-22T07:36:38.078Z,87.78
2023-02-22T07:39:12.358Z,86.92
2023-02-22T07:41:45.677Z,85.33
2023-02-22T07:44:29.449Z,85.37
2023-02-22T07:47:02.854Z,85.37
2023-02-22T07:49:36.591Z,84.90
2023-02-22T07:52:09.474Z,84.65
2023-02-22T07:54:42.525Z,84.05
2023-02-22T07:57:17.004Z,83.58
2023-02-22T07:59:51.662Z,83.57
2023-02-22T08:02:25.320Z,83.06
2023-02-22T08:04:58.408Z,82.81
2023-02-22T08:07:31.283Z,82.74
2023-02-22T08:10:07.128Z,82.75
2023-02-22T08:12:41.648Z,82.45
2023-02-22T08:15:21.756Z,82.38
2023-02-22T08:17:55.635Z,81.96
2023-02-22T08:20:29.173Z,81.43
2023-02-22T08:23:05.072Z,80.97
2023-02-22T08:25:38.684Z,81.08
2023-02-22T08:28:16.164Z,81.95
2023-02-22T08:30:49.931Z,82.26
2023-02-22T08:33:23.828Z,82.09
2023-02-22T08:35:58.175Z,81.65
2023-02-22T08:38:34.476Z,81.18
2023-02-22T08:41:08.398Z,81.32
2023-02-22T08:43:41.477Z,81.76
2023-02-22T08:46:14.916Z,81.94
2023-02-22T08:48:57.321Z,82.01
2023-02-22T08:51:30.274Z,81.85
2023-02-22T08:54:07.343Z,80.88
2023-02-22T08:56:41.605Z,80.94
2023-02-22T08:59:14.956Z,79.97
2023-02-22T09:01:49.867Z,78.11
2023-02-22T09:04:23.456Z,78.37
2023-02-22T09:06:56.899Z,77.70
2023-02-22T09:09:30.780Z,77.18
2023-02-22T09:12:04.242Z,76.06
2023-02-22T09:14:38.100Z,72.98
2023-02-22T09:17:11.746Z,69.97
2023-02-22T09:19:51.250Z,67.41
2023-02-22T09:22:24.169Z,65.72
2023-02-22T09:25:00.238Z,65.59
2023-02-22T09:27:33.291Z,65.49
2023-02-22T09:30:06.789Z,64.24
2023-02-22T09:32:41.947Z,64.62
2023-02-22T09:35:14.835Z,67.50
2023-02-22T09:37:48.141Z,69.31
2023-02-22T09:40:29.917Z,70.04
2023-02-22T09:43:12.177Z,69.98
2023-02-22T09:45:54.185Z,70.46
2023-02-22T09:48:32.168Z,71.13
2023-02-22T09:51:05.916Z,71.68
2023-02-22T09:53:42.071Z,71.89
2023-02-22T09:56:17.775Z,71.91
2023-02-22T09:58:52.725Z,72.14
2023-02-22T10:01:30.923Z,70.89
2023-02-22T10:04:07.786Z,69.22
2023-02-22T10:06:43.733Z,66.62
2023-02-22T10:09:16.626Z,64.57
2023-02-22T10:11:54.197Z,64.63
2023-02-22T10:14:53.655Z,63.54
2023-02-22T10:17:30.640Z,62.72
2023-02-22T10:20:28.938Z,62.06
2023-02-22T10:23:09.931Z,61.83
2023-02-22T10:25:43.911Z,62.30
2023-02-22T10:28:21.332Z,61.44
2023-02-22T10:30:56.865Z,60.55
2023-02-22T10:33:31.636Z,59.70
2023-02-22T10:36:07.794Z,59.32
2023-02-22T10:38:41.917Z,59.45
2023-02-22T10:41:25.188Z,59.12
2023-02-22T10:43:58.056Z,59.29
2023-02-22T10:46:31.981Z,58.66
2023-02-22T10:49:07.649Z,57.54
2023-02-22T10:51:40.716Z,57.70
2023-02-22T10:54:26.988Z,56.00
2023-02-22T10:57:00.467Z,54.48
2023-02-22T10:59:35.193Z,55.62
2023-02-22T11:02:22.348Z,56.44
2023-02-22T11:04:59.293Z,58.00
2023-02-22T11:07:35.137Z,58.34
2023-02-22T11:10:09.749Z,56.78
2023-02-22T11:12:48.973Z,55.95
2023-02-22T11:15:29.843Z,54.66
2023-02-22T11:18:04.341Z,54.87
2023-02-22T11:20:38.900Z,55.30
2023-02-22T11:23:12.634Z,54.76
2023-02-22T11:25:46.419Z,54.23
2023-02-22T11:28:20.837Z,54.70
2023-02-22T11:30:54.000Z,56.34
2023-02-22T11:33:27.349Z,57.29
2023-02-22T11:36:04.417Z,57.81
2023-02-22T11:38:38.273Z,59.07
2023-02-22T11:41:16.110Z,59.44
2023-02-22T11:43:50.172Z,59.99
2023-02-22T11:46:23.579Z,60.82
2023-02-22T11:49:04.862Z,61.06
2023-02-22T11:51:45.793Z,60.99
2023-02-22T11:54:29.196Z,60.00
2023-02-22T11:57:12.602Z,59.65
2023-02-22T11:59:48.737Z,59.76
2023-02-22T12:02:37.469Z,59.72
2023-02-22T12:05:20.235Z,60.87
2023-02-22T12:07:54.515Z,62.45
2023-02-22T12:10:34.575Z,64.85
2023-02-22T12:13:18.023Z,66.62
2023-02-22T12:15:53.686Z,68.14
2023-02-22T12:18:31.719Z,68.64
2023-02-22T12:21:06.273Z,67.63
2023-02-22T12:23:45.125Z,67.21
2023-02-22T12:26:20.519Z,67.27
2023-02-22T12:28:59.577Z,67.58
2023-02-22T12:31:34.555Z,68.17
2023-02-22T12:34:13.499Z,69.30
2023-02-22T12:36:47.382Z,69.71
2023-02-22T12:39:52.241Z,68.93
2023-02-22T12:42:30.432Z,66.10
2023-02-22T12:45:09.256Z,64.35
2023-02-22T12:47:45.638Z,63.52
2023-02-22T12:50:21.420Z,62.79
2023-02-22T12:52:59.313Z,62.52
2023-02-22T12:55:34.786Z,62.32
2023-02-22T12:58:11.769Z,63.03
2023-02-22T13:00:47.201Z,63.14
2023-02-22T13:03:32.186Z,63.59
2023-02-22T13:06:15.745Z,63.20
2023-02-22T13:08:54.093Z,63.58
2023-02-22T13:11:29.698Z,62.97
2023-02-22T13:14:12.778Z,62.24
2023-02-22T13:16:52.753Z,62.15
2023-02-22T13:19:35.810Z,62.55
2023-02-22T13:22:10.797Z,62.97
2023-02-22T13:24:50.101Z,62.86
2023-02-22T13:27:26.126Z,63.17
2023-02-22T13:30:00.418Z,63.21
2023-02-22T13:32:42.836Z,62.81
2023-02-22T13:35:35.611Z,63.00
2023-02-22T13:38:35.325Z,63.11
2023-02-22T13:41:29.855Z,62.66
2023-02-22T13:44:20.552Z,62.30
2023-02-22T13:47:26.201Z,62.18
2023-02-22T13:50:26.837Z,61.20
2023-02-22T13:52:59.625Z,60.30
2023-02-22T13:55:33.294Z,59.49
2023-02-22T13:58:07.938Z,59.89
2023-02-22T14:00:49.561Z,60.70
2023-02-22T14:03:36.440Z,61.47
2023-02-22T14:06:10.273Z,62.12
2023-02-22T14:08:47.063Z,62.78
2023-02-22T14:12:00.475Z,63.16
2023-02-22T14:14:35.680Z,63.57
2023-02-22T14:17:28.285Z,63.55
2023-02-22T14:20:30.227Z,63.58
2023-02-22T14:23:30.637Z,63.50
2023-02-22T14:26:13.331Z,63.11
2023-02-22T14:28:54.535Z,62.81
2023-02-22T14:31:36.584Z,62.79
2023-02-22T14:34:11.942Z,62.86
2023-02-22T14:36:55.999Z,62.45
2023-02-22T14:39:32.870Z,62.45
2023-02-22T14:42:08.559Z,62.28
2023-02-22T14:44:43.127Z,62.13
2023-02-22T14:47:21.342Z,62.22
2023-02-22T14:49:55.192Z,62.87
2023-02-22T14:52:34.366Z,63.52
2023-02-22T14:55:17.326Z,64.25
2023-02-22T14:57:55.086Z,64.97
2023-02-22T15:00:42.125Z,65.24
2023-02-22T15:03:29.330Z,65.22
2023-02-22T15:06:16.202Z,64.90
2023-02-22T15:09:06.548Z,64.72
2023-02-22T15:11:47.632Z,65.01
2023-02-22T15:14:26.783Z,67.26
2023-02-22T15:17:01.601Z,69.24
2023-02-22T15:19:36.167Z,70.61
2023-02-22T15:22:09.517Z,71.84
2023-02-22T15:24:42.354Z,72.89
2023-02-22T15:27:19.708Z,73.35
2023-02-22T15:29:52.927Z,73.55
2023-02-22T15:32:34.066Z,74.15
2023-02-22T15:35:26.607Z,74.93
2023-02-22T15:38:03.955Z,75.27
2023-02-22T15:40:37.346Z,75.40
2023-02-22T15:43:17.499Z,75.63
2023-02-22T15:45:51.478Z,75.06
2023-02-22T15:48:26.569Z,75.03
2023-02-22T15:51:07.066Z,74.88
2023-02-22T15:53:45.231Z,75.09
2023-02-22T15:56:19.832Z,75.01
2023-02-22T15:58:53.299Z,75.06
2023-02-22T16:01:27.331Z,74.61
2023-02-22T16:04:00.570Z,74.45
2023-02-22T16:06:35.641Z,74.20
2023-02-22T16:09:12.315Z,73.78
2023-02-22T16:11:47.501Z,72.77
2023-02-22T16:14:31.282Z,71.77
2023-02-22T17:36:59.739Z,65.28
2023-02-22T17:39:32.473Z,64.91
2023-02-22T17:42:05.714Z,64.45
2023-02-22T17:44:38.922Z,64.34
2023-02-22T17:47:11.786Z,64.29
2023-02-22T17:49:44.974Z,64.53
2023-02-22T17:52:18.149Z,64.74
2023-02-22T17:54:51.225Z,64.99
2023-02-22T17:57:23.973Z,65.39
2023-02-22T17:59:57.259Z,65.70
2023-02-22T18:02:30.734Z,65.78
2023-02-22T18:05:07.439Z,65.74
2023-02-22T18:07:40.197Z,65.62
2023-02-22T18:10:15.640Z,65.68
2023-02-22T18:12:49.121Z,65.59
2023-02-22T18:15:22.835Z,39.03
2023-02-22T18:17:56.620Z,65.92
2023-02-22T18:20:38.582Z,66.05
2023-02-22T18:23:14.120Z,66.08
2023-02-22T18:26:07.678Z,66.19
2023-02-22T18:28:42.611Z,66.39
2023-02-22T18:31:17.325Z,66.49
2023-02-22T18:33:50.865Z,66.60
2023-02-22T18:36:24.542Z,66.98
2023-02-22T18:38:57.289Z,67.35
2023-02-22T18:41:30.856Z,67.55
2023-02-22T18:44:04.364Z,67.51
2023-02-22T18:46:39.581Z,67.51
2023-02-22T18:49:14.602Z,67.48
2023-02-22T18:51:47.450Z,66.57
2023-02-22T18:54:20.886Z,66.07
2023-02-22T18:56:56.393Z,65.91
2023-02-22T18:59:29.248Z,65.85
2023-02-22T19:02:03.397Z,66.19
2023-02-22T19:04:37.955Z,66.41
2023-02-22T19:07:10.979Z,66.22
2023-02-22T19:09:43.733Z,65.75
2023-02-22T19:12:17.452Z,65.30
2023-02-22T19:14:50.555Z,64.95
2023-02-22T19:17:25.372Z,64.73
2023-02-22T19:19:59.320Z,64.52
2023-02-22T19:22:33.032Z,64.17
2023-02-22T19:25:06.132Z,64.05
2023-02-22T19:27:41.925Z,63.99
2023-02-22T19:30:17.391Z,63.79
2023-02-22T19:32:50.354Z,63.76
2023-02-22T19:35:27.550Z,63.86
2023-02-22T19:38:00.480Z,64.33
2023-02-22T19:40:33.873Z,64.13
2023-02-22T19:43:06.763Z,63.88
2023-02-22T19:45:42.111Z,63.56
2023-02-22T19:48:16.573Z,63.20
2023-02-22T19:50:58.087Z,62.98
2023-02-22T19:53:29.941Z,62.81
2023-02-22T19:56:05.657Z,62.71
2023-02-22T19:58:39.468Z,62.72
2023-02-22T20:01:16.603Z,62.66
2023-02-22T20:03:53.476Z,62.58
2023-02-22T20:06:28.261Z,62.50
2023-02-22T20:09:01.082Z,62.35
2023-02-22T20:11:34.373Z,62.26
2023-02-22T20:14:07.789Z,61.86
2023-02-22T20:16:40.586Z,61.44
2023-02-22T20:19:14.190Z,61.18
2023-02-22T20:21:47.895Z,61.18
2023-02-22T20:24:21.417Z,61.12
2023-02-22T20:26:57.324Z,61.10
2023-02-22T20:29:32.404Z,61.29
2023-02-22T20:32:06.026Z,61.36
2023-02-22T20:34:39.299Z,61.72
2023-02-22T20:37:12.738Z,61.88
2023-02-22T20:39:45.922Z,62.33
2023-02-22T20:42:18.678Z,62.66
2023-02-22T20:44:54.166Z,63.04
2023-02-22T20:47:27.126Z,63.29
2023-02-22T20:50:00.103Z,63.67
2023-02-22T20:52:35.673Z,64.11
2023-02-22T20:55:11.862Z,64.30
2023-02-22T20:57:44.663Z,64.68
2023-02-22T21:00:19.199Z,65.14
2023-02-22T21:02:52.472Z,65.65
2023-02-22T21:05:25.968Z,66.09
2023-02-22T21:08:01.145Z,66.31
2023-02-22T21:10:34.758Z,66.83
2023-02-22T21:13:11.208Z,66.54
2023-02-22T21:15:47.536Z,66.93
2023-02-22T21:18:20.979Z,67.27
2023-02-22T21:20:53.979Z,67.66
2023-02-22T21:23:26.668Z,67.79
2023-02-22T21:26:01.398Z,68.43
2023-02-22T21:28:50.574Z,69.10
2023-02-22T21:31:25.430Z,69.39
2023-02-22T21:34:02.282Z,69.52
2023-02-22T21:36:35.353Z,69.90
2023-02-22T21:39:19.797Z,69.77
2023-02-22T21:41:53.200Z,70.19
2023-02-22T21:44:25.869Z,70.27
2023-02-22T21:46:58.645Z,70.85
2023-02-22T21:49:38.392Z,71.40
2023-02-22T21:52:11.283Z,71.94
2023-02-22T21:54:44.807Z,28.12
2023-02-22T21:57:17.742Z,71.79
2023-02-22T21:59:53.550Z,71.82
2023-02-22T22:02:26.948Z,71.69
2023-02-22T22:04:59.766Z,71.88
2023-02-22T22:07:33.886Z,71.75
2023-02-22T22:10:07.350Z,71.48
2023-02-22T22:12:42.950Z,71.31
2023-02-22T22:15:17.771Z,71.11
2023-02-22T22:17:53.716Z,70.88
2023-02-22T22:20:26.593Z,71.00
2023-02-22T22:22:59.381Z,71.18
2023-02-22T22:25:32.882Z,71.73
2023-02-22T22:28:07.761Z,71.54
2023-02-22T22:30:41.151Z,71.41
2023-02-22T22:33:13.888Z,71.11
2023-02-22T22:35:46.682Z,70.87
2023-02-22T22:38:20.908Z,70.94
2023-02-22T22:40:54.664Z,71.16
2023-02-22T22:43:29.097Z,71.62
2023-02-22T22:46:05.549Z,72.02
2023-02-22T22:48:40.154Z,72.11
2023-02-22T22:51:14.835Z,71.89
2023-02-22T22:53:49.864Z,71.67
2023-02-22T22:56:26.934Z,71.62
2023-02-22T22:59:00.048Z,71.64
2023-02-22T23:01:34.268Z,71.74
2023-02-22T23:04:09.863Z,72.11
2023-02-22T23:06:44.481Z,72.57
2023-02-22T23:09:19.790Z,72.91
2023-02-22T23:11:53.873Z,73.13
2023-02-22T23:14:31.832Z,72.93
2023-02-22T23:17:13.787Z,72.75
2023-02-22T23:19:47.110Z,72.55
2023-02-22T23:22:21.426Z,71.63
2023-02-22T23:25:00.093Z,68.87
2023-02-22T23:27:33.345Z,66.62
2023-02-22T23:30:07.399Z,65.28
2023-02-22T23:32:41.671Z,65.28
2023-02-22T23:35:15.102Z,65.19
2023-02-22T23:37:53.195Z,65.02
2023-02-22T23:40:26.415Z,64.27
2023-02-22T23:43:04.615Z,63.22
2023-02-22T23:45:38.868Z,63.08
2023-02-22T23:48:14.192Z,62.58
2023-02-22T23:50:49.210Z,62.23
2023-02-22T23:53:26.134Z,61.58
2023-02-22T23:55:58.969Z,60.90
2023-02-22T23:58:32.349Z,60.77
